Time;durP1;ratioP1;P1;durP2;ratioP2;P2;SDS_P1;SDS_P2;PMS_P1;PMS_P2;Temp;Humidity;BMP_temperature;BMP_pressure;BME280_temperature;BME280_humidity;BME280_pressure;Samples;Min_cycle;Max_cycle;Signal;HPM_P1;HPM_P2
2022/05/30 00:00:45;;;;;;;2.13;1.50;;;;;;;14.06;49.68;99842.84;5034958;28;20469;-73
2022/05/30 00:03:11;;;;;;;3.67;1.70;;;;;;;14.07;49.79;99845.28;5046261;28;20472;-73
2022/05/30 00:05:37;;;;;;;1.57;1.20;;;;;;;14.08;49.47;99835.19;5035262;28;20920;-73
2022/05/30 00:08:03;;;;;;;3.80;1.13;;;;;;;14.07;49.56;99839.81;5031497;28;20439;-73
2022/05/30 00:10:29;;;;;;;2.00;1.20;;;;;;;14.06;49.88;99843.66;5035143;28;20410;-73
2022/05/30 00:12:55;;;;;;;2.65;1.40;;;;;;;14.01;49.60;99840.97;5027166;28;20402;-73
2022/05/30 00:15:22;;;;;;;1.40;1.15;;;;;;;13.96;49.58;99836.34;5032505;28;20418;-73
2022/05/30 00:17:47;;;;;;;1.48;1.38;;;;;;;13.91;49.71;99835.56;5045791;28;20492;-73
2022/05/30 00:20:13;;;;;;;2.70;1.20;;;;;;;13.87;49.85;99831.78;5034373;28;20482;-73
2022/05/30 00:22:39;;;;;;;2.40;1.30;;;;;;;13.85;50.02;99831.25;5032950;28;20987;-73
2022/05/30 00:25:05;;;;;;;2.03;1.30;;;;;;;13.83;50.42;99828.00;5043231;28;20494;-73
2022/05/30 00:27:31;;;;;;;2.05;1.58;;;;;;;13.79;50.44;99832.38;5023571;28;20411;-73
2022/05/30 00:29:57;;;;;;;2.90;1.23;;;;;;;13.75;50.51;99823.16;5031195;28;20375;-73
2022/05/30 00:32:22;;;;;;;1.20;1.10;;;;;;;13.70;50.33;99823.19;5039667;28;20628;-73
2022/05/30 00:34:47;;;;;;;1.52;1.10;;;;;;;13.65;50.29;99821.28;5041679;28;20414;-73
2022/05/30 00:37:13;;;;;;;1.30;1.20;;;;;;;13.65;50.51;99812.31;5039614;28;20504;-73
2022/05/30 00:39:38;;;;;;;1.37;1.27;;;;;;;13.65;50.77;99813.13;5033855;28;20387;-73
2022/05/30 00:42:13;;;;;;;1.57;1.40;;;;;;;13.63;50.95;99822.66;5051151;28;20389;-73
2022/05/30 00:44:39;;;;;;;1.87;1.30;;;;;;;13.62;50.92;99807.41;5041060;28;20422;-73
2022/05/30 00:47:05;;;;;;;2.63;1.40;;;;;;;13.60;50.76;99807.69;5041938;28;20413;-73
2022/05/30 00:49:30;;;;;;;1.65;1.20;;;;;;;13.59;50.77;99799.81;5040830;28;20905;-73
2022/05/30 00:51:56;;;;;;;1.30;1.20;;;;;;;13.55;50.98;99802.28;5030570;28;20486;-73
2022/05/30 00:54:27;;;;;;;2.28;1.30;;;;;;;13.50;51.11;99802.31;5036109;28;20396;-73
2022/05/30 00:56:56;;;;;;;2.80;1.40;;;;;;;13.47;50.92;99806.41;5037257;28;20435;-73
2022/05/30 00:59:22;;;;;;;2.30;1.63;;;;;;;13.47;51.30;99802.84;5049061;28;20396;-73
2022/05/30 01:01:47;;;;;;;1.50;1.40;;;;;;;13.46;51.31;99802.06;5038446;28;20437;-73
2022/05/30 01:07:04;;;;;;;2.77;1.83;;;;;;;13.41;51.74;99793.09;5034525;28;20496;-73
2022/05/30 01:09:33;;;;;;;1.60;1.33;;;;;;;13.39;52.11;99798.00;5050389;28;20400;-73
2022/05/30 01:12:05;;;;;;;2.25;1.42;;;;;;;13.37;52.54;99795.56;5039530;28;20722;-73
2022/05/30 01:14:36;;;;;;;2.90;1.85;;;;;;;13.35;52.48;99788.78;5044102;28;20398;-73
2022/05/30 01:17:08;;;;;;;2.40;1.60;;;;;;;13.32;52.75;99795.59;5035581;28;20414;-73
2022/05/30 01:19:51;;;;;;;2.30;1.70;;;;;;;13.37;52.80;99789.31;5041469;28;20517;-73
2022/05/30 01:22:50;;;;;;;2.30;1.60;;;;;;;13.40;52.91;99786.03;5043022;28;20404;-73
2022/05/30 01:25:50;;;;;;;1.67;1.58;;;;;;;13.38;52.89;99785.47;5036007;28;20422;-73
2022/05/30 01:28:22;;;;;;;1.65;1.55;;;;;;;13.35;52.49;99786.03;5039016;28;20485;-73
2022/05/30 01:30:49;;;;;;;1.75;1.40;;;;;;;13.34;52.31;99784.41;5047682;28;20417;-73
2022/05/30 01:33:14;;;;;;;1.77;1.30;;;;;;;13.27;52.11;99779.28;5045713;28;20409;-73
2022/05/30 01:35:40;;;;;;;1.40;1.40;;;;;;;13.15;52.04;99776.06;5047895;28;20959;-73
2022/05/30 01:38:06;;;;;;;3.40;1.30;;;;;;;13.10;52.07;99769.84;5044407;28;20395;-73
2022/05/30 01:40:31;;;;;;;2.03;1.35;;;;;;;13.07;52.18;99778.53;5047166;28;20434;-73
2022/05/30 01:42:57;;;;;;;2.33;1.45;;;;;;;13.05;52.24;99770.63;5037379;28;20493;-73
2022/05/30 01:45:24;;;;;;;1.80;1.40;;;;;;;13.06;52.69;99766.00;5040147;28;20414;-73
2022/05/30 01:47:50;;;;;;;3.72;1.40;;;;;;;13.07;52.78;99764.91;5050575;28;20895;-73
2022/05/30 01:50:15;;;;;;;1.85;1.75;;;;;;;13.07;52.83;99773.91;5051980;28;20394;-73
2022/05/30 01:52:41;;;;;;;1.27;1.27;;;;;;;13.07;52.48;99768.47;5037456;28;20552;-73
2022/05/30 01:55:07;;;;;;;1.50;1.40;;;;;;;13.06;52.49;99772.25;5035854;28;20878;-73
2022/05/30 01:57:32;;;;;;;1.95;1.30;;;;;;;13.03;52.26;99778.25;5044955;28;20406;-73
2022/05/30 01:59:57;;;;;;;1.60;1.40;;;;;;;12.95;52.34;99779.63;5036699;28;20960;-73
2022/05/30 02:02:22;;;;;;;1.40;1.30;;;;;;;12.89;52.28;99779.94;5044798;28;20551;-73
2022/05/30 02:04:48;;;;;;;1.70;1.47;;;;;;;12.82;52.31;99773.97;5031417;28;20409;-73
2022/05/30 02:07:14;;;;;;;1.23;1.13;;;;;;;12.73;52.74;99781.06;5039591;28;20454;-73
2022/05/30 02:09:39;;;;;;;2.75;1.27;;;;;;;12.64;53.09;99772.66;5042374;28;20491;-73
2022/05/30 02:12:05;;;;;;;1.50;1.40;;;;;;;12.57;52.98;99774.03;5047240;28;20948;-73
2022/05/30 02:14:30;;;;;;;1.65;1.55;;;;;;;12.48;53.44;99780.00;5030428;28;20408;-73
2022/05/30 02:17:01;;;;;;;1.43;1.33;;;;;;;12.43;53.77;99779.19;5037940;28;20455;-73
2022/05/30 02:19:38;;;;;;;2.30;1.80;;;;;;;12.39;54.02;99780.81;5024451;28;20413;-73
2022/05/30 02:22:05;;;;;;;2.63;1.60;;;;;;;12.36;53.93;99781.38;5048286;28;20399;-73
2022/05/30 02:24:31;;;;;;;2.67;1.63;;;;;;;12.32;54.25;99783.00;5033580;28;20422;-73
2022/05/30 02:26:56;;;;;;;2.00;1.60;;;;;;;12.27;54.31;99780.31;5036869;28;20393;-73
2022/05/30 02:29:22;;;;;;;2.53;1.60;;;;;;;12.25;54.58;99779.78;5039381;28;20411;-73
2022/05/30 02:31:47;;;;;;;2.40;1.85;;;;;;;12.18;54.61;99773.78;5046910;28;20906;-73
2022/05/30 02:36:57;;;;;;;2.53;2.10;;;;;;;12.13;54.92;99776.50;5043469;28;20430;-73
2022/05/30 02:39:25;;;;;;;1.70;1.60;;;;;;;12.13;55.11;99773.78;5032841;28;20403;-73
2022/05/30 02:41:51;;;;;;;3.60;1.70;;;;;;;12.10;54.93;99777.84;5035465;28;20404;-73
2022/05/30 02:44:20;;;;;;;1.70;1.60;;;;;;;12.14;54.97;99780.84;5036460;28;20891;-73
2022/05/30 02:46:52;;;;;;;2.85;1.50;;;;;;;12.17;54.92;99781.13;5028957;28;20437;-73
2022/05/30 02:49:18;;;;;;;2.65;1.80;;;;;;;12.13;54.76;99776.50;5046046;28;20463;-73
2022/05/30 02:51:45;;;;;;;1.60;1.50;;;;;;;12.12;54.88;99774.88;5035599;28;20407;-73
2022/05/30 02:54:11;;;;;;;1.87;1.67;;;;;;;12.11;55.03;99776.78;5019104;28;20401;-73
2022/05/30 02:56:37;;;;;;;2.85;1.98;;;;;;;12.16;55.08;99773.22;5038612;28;20459;-73
2022/05/30 02:59:03;;;;;;;2.17;1.75;;;;;;;12.18;55.00;99771.06;5032505;28;20395;-73
2022/05/30 03:01:31;;;;;;;2.08;1.88;;;;;;;12.18;55.35;99776.50;5047910;28;20443;-73
2022/05/30 03:03:58;;;;;;;3.20;1.95;;;;;;;12.16;55.04;99775.94;5036013;28;20421;-73
2022/05/30 03:06:23;;;;;;;4.88;2.15;;;;;;;12.12;55.33;99780.31;5034084;28;20955;-73
2022/05/30 03:08:48;;;;;;;4.97;2.00;;;;;;;12.11;55.72;99782.22;5039677;28;20403;-73
2022/05/30 03:11:14;;;;;;;3.27;2.20;;;;;;;12.13;55.83;99776.50;5020735;28;20458;-73
2022/05/30 03:13:39;;;;;;;4.33;2.17;;;;;;;12.12;55.89;99783.81;5028222;28;20414;-73
2022/05/30 03:16:05;;;;;;;2.10;2.00;;;;;;;12.13;55.86;99784.63;5040329;28;20780;-73
2022/05/30 03:18:30;;;;;;;2.13;1.70;;;;;;;12.15;55.66;99785.19;5035415;28;20398;-73
2022/05/30 03:20:56;;;;;;;1.77;1.67;;;;;;;12.19;54.43;99788.97;5046779;28;20408;-73
2022/05/30 03:23:22;;;;;;;2.13;1.60;;;;;;;12.23;53.47;99790.91;5033459;28;20503;-73
2022/05/30 03:25:48;;;;;;;1.42;1.33;;;;;;;12.13;53.54;99792.78;5050719;28;20397;-73
2022/05/30 03:28:13;;;;;;;10.00;2.03;;;;;;;11.97;53.59;99800.13;5047073;28;20796;-73
2022/05/30 03:30:38;;;;;;;2.23;1.53;;;;;;;11.82;53.69;99792.75;5038573;28;20414;-73
2022/05/30 03:33:06;;;;;;;1.43;1.40;;;;;;;11.69;54.06;99806.00;5047966;28;20414;-73
2022/05/30 03:35:31;;;;;;;1.80;1.67;;;;;;;11.59;54.34;99806.00;5031811;28;20902;-73
2022/05/30 03:37:57;;;;;;;1.60;1.58;;;;;;;11.54;54.48;99803.25;5034135;28;20414;-73
2022/05/30 03:40:22;;;;;;;1.63;1.60;;;;;;;11.51;54.61;99807.31;5041027;28;20435;-73
2022/05/30 03:42:47;;;;;;;1.53;1.40;;;;;;;11.53;54.71;99802.41;5031646;28;20383;-73
2022/05/30 03:45:13;;;;;;;1.70;1.60;;;;;;;11.52;55.05;99805.41;5044094;28;20965;-73
2022/05/30 03:47:44;;;;;;;3.20;1.90;;;;;;;11.52;54.84;99808.13;5044198;28;20407;-73
2022/05/30 03:50:12;;;;;;;2.70;2.20;;;;;;;11.52;55.37;99808.94;5043400;28;20389;-73
2022/05/30 03:52:38;;;;;;;6.07;1.85;;;;;;;11.52;55.01;99806.25;5035649;28;20406;-73
2022/05/30 03:55:05;;;;;;;2.30;1.63;;;;;;;11.54;55.32;99805.97;5036863;28;20410;-73
2022/05/30 03:57:31;;;;;;;1.90;1.80;;;;;;;11.54;55.42;99809.50;5041888;28;20430;-74
2022/05/30 03:59:56;;;;;;;2.70;1.63;;;;;;;11.53;55.42;99807.84;5042762;28;20864;-73
2022/05/30 04:02:21;;;;;;;2.00;1.60;;;;;;;11.53;55.80;99812.47;5036584;28;20492;-73
2022/05/30 04:04:46;;;;;;;4.20;1.73;;;;;;;11.53;55.72;99824.13;5039856;28;20418;-72
2022/05/30 04:07:12;;;;;;;3.60;1.93;;;;;;;11.55;55.92;99818.44;5029109;28;20468;-73
2022/05/30 04:09:37;;;;;;;1.60;1.50;;;;;;;11.55;56.02;99813.84;5016098;28;20898;-73
2022/05/30 04:12:03;;;;;;;2.00;1.90;;;;;;;11.57;56.17;99813.56;5030333;28;20411;-73
2022/05/30 04:14:28;;;;;;;4.20;2.10;;;;;;;11.57;56.17;99819.00;5042407;28;21001;-73
2022/05/30 04:16:53;;;;;;;2.13;1.93;;;;;;;11.55;56.14;99815.75;5044027;28;20411;-73
2022/05/30 04:19:18;;;;;;;2.23;1.97;;;;;;;11.57;55.93;99813.56;5051380;28;20876;-73
2022/05/30 04:21:44;;;;;;;3.00;2.00;;;;;;;11.61;55.64;99814.66;5055187;28;20408;-73
2022/05/30 04:24:09;;;;;;;2.90;2.57;;;;;;;11.58;55.84;99817.91;5021479;28;20425;-73
2022/05/30 04:26:34;;;;;;;1.70;1.57;;;;;;;11.55;55.56;99811.13;5046964;28;20478;-73
2022/05/30 04:29:00;;;;;;;4.32;2.08;;;;;;;11.52;55.69;99813.56;5034843;28;20410;-73
2022/05/30 04:31:25;;;;;;;3.50;2.00;;;;;;;11.52;55.61;99819.81;5023062;28;20450;-74
2022/05/30 04:33:50;;;;;;;5.23;2.53;;;;;;;11.55;55.88;99818.44;5047466;28;20927;-73
2022/05/30 04:36:16;;;;;;;3.07;1.93;;;;;;;11.58;55.98;99821.44;5043029;28;20450;-73
2022/05/30 04:38:41;;;;;;;2.55;2.35;;;;;;;11.61;56.06;99822.81;5037616;28;20824;-73
2022/05/30 04:41:07;;;;;;;2.63;2.47;;;;;;;11.64;56.16;99822.28;5038667;28;20441;-73
2022/05/30 04:43:32;;;;;;;2.70;2.38;;;;;;;11.68;56.23;99823.38;5035908;28;20412;-73
2022/05/30 04:46:05;;;;;;;3.40;2.77;;;;;;;11.70;56.45;99818.47;5040544;28;20829;-73
2022/05/30 04:48:30;;;;;;;3.88;2.58;;;;;;;11.68;56.70;99824.19;5036372;28;20483;-73
2022/05/30 04:50:55;;;;;;;3.33;2.70;;;;;;;11.71;56.86;99825.59;5043246;28;20399;-73
2022/05/30 04:53:21;;;;;;;8.10;2.83;;;;;;;11.72;57.03;99830.72;5048816;28;20385;-73
2022/05/30 04:55:46;;;;;;;3.20;2.10;;;;;;;11.75;57.17;99832.94;5049467;28;20451;-73
2022/05/30 04:58:11;;;;;;;2.63;2.43;;;;;;;11.81;57.08;99836.47;5045967;28;20419;-73
2022/05/30 05:00:36;;;;;;;3.47;2.17;;;;;;;11.84;57.23;99839.47;5033132;28;20913;-74
2022/05/30 05:03:02;;;;;;;2.97;2.60;;;;;;;11.88;57.36;99840.56;5036692;28;20429;-73
2022/05/30 05:05:30;;;;;;;3.27;2.37;;;;;;;11.95;57.66;99843.03;5016819;28;20924;-73
2022/05/30 05:08:13;;;;;;;2.75;2.30;;;;;;;12.00;57.71;99845.72;5038470;28;20425;-73
2022/05/30 05:10:52;;;;;;;2.78;2.58;;;;;;;12.04;57.89;99849.56;5059448;28;20401;-73
2022/05/30 05:13:17;;;;;;;5.05;2.60;;;;;;;12.07;57.87;99840.03;5047642;28;20394;-73
2022/05/30 05:15:42;;;;;;;5.60;3.10;;;;;;;12.12;58.09;99840.06;5046343;28;20930;-73
2022/05/30 05:18:08;;;;;;;3.60;2.73;;;;;;;12.15;58.31;99848.47;5050694;28;20390;-73
2022/05/30 05:20:43;;;;;;;3.60;2.53;;;;;;;12.22;58.47;99848.19;5050358;28;20418;-73
2022/05/30 05:23:11;;;;;;;2.88;2.60;;;;;;;12.27;58.86;99849.03;5017612;28;20469;-73
2022/05/30 05:25:37;;;;;;;4.35;3.45;;;;;;;12.27;59.21;99854.47;5028810;28;20415;-73
2022/05/30 05:28:03;;;;;;;9.50;3.70;;;;;;;12.31;59.09;99860.19;5023821;28;20931;-73
2022/05/30 05:30:28;;;;;;;8.07;3.77;;;;;;;12.34;59.23;99857.75;5034021;28;20977;-73
2022/05/30 05:32:54;;;;;;;5.87;3.73;;;;;;;12.37;59.22;99859.09;5016199;28;20403;-73
2022/05/30 05:35:19;;;;;;;3.60;3.37;;;;;;;12.37;59.43;99857.19;5046959;28;20505;-73
2022/05/30 05:37:44;;;;;;;3.53;3.07;;;;;;;12.39;59.38;99867.78;5037458;28;20445;-73
2022/05/30 05:40:10;;;;;;;3.03;2.83;;;;;;;12.41;59.34;99871.84;5034721;28;20455;-74
2022/05/30 05:42:35;;;;;;;3.45;3.15;;;;;;;12.46;59.28;99863.72;5038419;28;20414;-73
2022/05/30 05:45:01;;;;;;;5.93;3.07;;;;;;;12.57;59.13;99863.72;5033657;28;20410;-73
2022/05/30 05:47:26;;;;;;;5.50;3.13;;;;;;;12.57;59.56;99864.53;5039607;28;20393;-72
2022/05/30 05:49:51;;;;;;;4.50;3.40;;;;;;;12.62;59.56;99877.28;5051233;28;20500;-73
2022/05/30 05:52:17;;;;;;;3.43;2.63;;;;;;;12.68;59.17;99870.78;5053593;28;20393;-73
2022/05/30 05:54:42;;;;;;;2.70;2.60;;;;;;;12.67;58.97;99867.25;5041504;28;20414;-72
2022/05/30 05:57:09;;;;;;;3.70;2.90;;;;;;;12.69;58.91;99869.69;5033901;28;20402;-73
2022/05/30 05:59:37;;;;;;;4.38;3.35;;;;;;;12.73;58.80;99876.22;5057149;28;20407;-75
2022/05/30 06:02:05;;;;;;;3.58;2.83;;;;;;;12.74;59.04;99867.81;5055920;28;20417;-76
2022/05/30 06:04:30;;;;;;;3.40;3.10;;;;;;;12.75;58.68;99872.13;5037589;28;20422;-75
2022/05/30 06:07:00;;;;;;;5.43;3.28;;;;;;;12.75;58.54;99874.03;5044699;28;20418;-75
2022/05/30 06:09:25;;;;;;;3.08;2.88;;;;;;;12.76;58.52;99871.06;5046682;28;20400;-73
2022/05/30 06:11:51;;;;;;;3.67;3.20;;;;;;;12.78;58.39;99870.75;5047472;28;20403;-73
2022/05/30 06:14:16;;;;;;;2.70;2.50;;;;;;;12.81;58.01;99872.97;5014331;28;20415;-73
2022/05/30 06:16:41;;;;;;;2.97;2.70;;;;;;;12.84;58.20;99873.19;5036182;28;20488;-73
2022/05/30 06:19:07;;;;;;;2.70;2.60;;;;;;;12.90;57.97;99876.75;5035797;28;20400;-74
2022/05/30 06:21:33;;;;;;;2.33;2.13;;;;;;;12.97;57.80;99882.72;5024349;28;21129;-73
2022/05/30 06:23:59;;;;;;;2.80;2.60;;;;;;;13.03;57.82;99887.06;5038645;28;20423;-74
2022/05/30 06:26:25;;;;;;;2.88;2.50;;;;;;;13.06;57.53;99883.78;5046711;28;20445;-73
2022/05/30 06:28:51;;;;;;;2.47;2.28;;;;;;;13.08;57.42;99881.59;5030816;28;20426;-73
2022/05/30 06:31:19;;;;;;;3.03;2.50;;;;;;;13.09;56.83;99886.00;5032829;28;20868;-73
2022/05/30 06:33:45;;;;;;;2.97;2.30;;;;;;;13.12;57.30;99885.44;5026358;28;20972;-73
2022/05/30 06:36:13;;;;;;;2.55;2.42;;;;;;;13.17;56.94;99885.41;5013886;28;20419;-73
2022/05/30 06:38:39;;;;;;;3.60;2.58;;;;;;;13.22;56.84;99884.59;5037143;28;20698;-73
2022/05/30 06:41:23;;;;;;;3.00;2.28;;;;;;;13.27;56.63;99888.13;5047367;28;20437;-73
2022/05/30 06:43:52;;;;;;;4.60;2.33;;;;;;;13.31;56.47;99893.81;5052683;28;20424;-73
2022/05/30 06:46:18;;;;;;;4.32;2.20;;;;;;;13.30;56.25;99893.03;5032478;28;20762;-73
2022/05/30 06:48:43;;;;;;;2.28;2.05;;;;;;;13.32;56.19;99899.00;5045958;28;20413;-73
2022/05/30 06:51:12;;;;;;;4.47;2.43;;;;;;;13.36;56.34;99893.81;5025245;28;20901;-73
2022/05/30 06:53:40;;;;;;;2.35;2.05;;;;;;;13.37;55.88;99896.25;5031481;28;20409;-73
2022/05/30 06:56:17;;;;;;;3.00;2.20;;;;;;;13.44;55.82;99895.97;5032146;28;20407;-73
2022/05/30 06:58:44;;;;;;;1.90;1.77;;;;;;;13.46;55.81;99900.06;5020803;28;20394;-73
2022/05/30 07:01:09;;;;;;;3.03;2.03;;;;;;;13.48;55.51;99897.03;5028383;28;20414;-73
2022/05/30 07:03:36;;;;;;;2.10;2.00;;;;;;;13.50;55.27;99898.38;5019339;28;20998;-73
2022/05/30 07:06:05;;;;;;;1.97;1.80;;;;;;;13.59;55.22;99898.66;5026590;28;20416;-73
2022/05/30 07:08:31;;;;;;;2.03;1.90;;;;;;;13.62;55.34;99903.53;5026357;28;20925;-72
2022/05/30 07:10:56;;;;;;;2.63;1.80;;;;;;;13.68;55.04;99907.03;5010491;28;20411;-72
2022/05/30 07:13:21;;;;;;;2.30;2.10;;;;;;;13.71;54.99;99899.13;5029227;28;20414;-73
2022/05/30 07:15:48;;;;;;;3.70;2.63;;;;;;;13.75;54.43;99899.38;5025280;28;20433;-72
2022/05/30 07:18:17;;;;;;;3.25;1.70;;;;;;;13.73;54.11;99905.09;5018710;28;20407;-72
2022/05/30 07:20:42;;;;;;;4.13;2.13;;;;;;;13.75;54.20;99899.38;5020873;28;20405;-72
2022/05/30 07:23:08;;;;;;;3.43;2.13;;;;;;;13.79;54.15;99905.91;5024432;28;20473;-71
2022/05/30 07:25:35;;;;;;;2.47;2.28;;;;;;;13.85;54.24;99910.25;5029043;28;20419;-71
2022/05/30 07:28:02;;;;;;;5.37;2.77;;;;;;;13.90;53.81;99911.03;5026781;28;20426;-72
2022/05/30 07:30:27;;;;;;;2.22;2.03;;;;;;;13.92;53.79;99899.88;5028370;28;20465;-72
2022/05/30 07:32:55;;;;;;;2.30;2.10;;;;;;;13.96;54.09;99900.94;5029187;28;20894;-72
2022/05/30 07:35:20;;;;;;;3.47;2.40;;;;;;;13.99;54.16;99898.44;5018608;28;20469;-71
2022/05/30 07:37:45;;;;;;;2.13;1.83;;;;;;;14.05;54.20;99899.25;5024433;28;20402;-72
2022/05/30 07:40:12;;;;;;;2.70;1.67;;;;;;;14.11;53.89;99900.84;5030079;28;20411;-72
2022/05/30 07:42:37;;;;;;;2.33;1.83;;;;;;;14.14;53.49;99896.72;5022912;28;20417;-72
2022/05/30 07:45:03;;;;;;;2.40;1.55;;;;;;;14.12;53.83;99897.03;5027468;28;20755;-72
2022/05/30 07:47:28;;;;;;;2.88;1.90;;;;;;;14.18;53.69;99897.81;5043946;28;20415;-72
2022/05/30 07:49:54;;;;;;;1.70;1.47;;;;;;;14.23;53.28;99906.75;5027389;28;20497;-72
2022/05/30 07:52:19;;;;;;;2.30;1.60;;;;;;;14.29;53.20;99905.63;5043307;28;20409;-71
2022/05/30 07:54:44;;;;;;;4.37;2.03;;;;;;;14.34;52.90;99902.91;5047683;28;20424;-72
2022/05/30 07:57:10;;;;;;;2.23;1.63;;;;;;;14.37;52.89;99896.88;5032909;28;20400;-72
2022/05/30 07:59:36;;;;;;;2.55;1.67;;;;;;;14.40;52.88;99900.94;5030182;28;20426;-72
2022/05/30 08:02:04;;;;;;;2.85;1.50;;;;;;;14.43;52.85;99893.03;5044098;28;20486;-72
2022/05/30 08:04:29;;;;;;;3.92;2.00;;;;;;;14.49;52.34;99891.88;5035214;28;20418;-72
2022/05/30 08:06:54;;;;;;;2.40;1.70;;;;;;;14.54;52.31;99894.59;5034149;28;20881;-72
2022/05/30 08:09:20;;;;;;;1.35;1.17;;;;;;;14.58;51.90;99892.09;5028708;28;20412;-71
2022/05/30 08:11:45;;;;;;;3.37;1.50;;;;;;;14.63;52.11;99896.69;5027277;28;20409;-71
2022/05/30 08:14:11;;;;;;;1.77;1.60;;;;;;;14.68;51.83;99891.22;5031296;28;20407;-72
2022/05/30 08:16:37;;;;;;;2.85;1.40;;;;;;;14.75;51.67;99900.66;5028237;28;20410;-72
2022/05/30 08:19:07;;;;;;;2.38;1.50;;;;;;;14.79;51.57;99892.72;5029479;28;20407;-72
2022/05/30 08:21:33;;;;;;;1.73;1.38;;;;;;;14.86;51.23;99906.84;5041480;28;20508;-71
2022/05/30 08:23:59;;;;;;;3.03;1.70;;;;;;;14.89;50.97;99895.38;5034635;28;20941;-71
2022/05/30 08:26:24;;;;;;;5.10;2.73;;;;;;;14.92;51.05;99898.34;5030368;28;20429;-72
2022/05/30 08:28:49;;;;;;;1.65;1.55;;;;;;;15.00;50.92;99897.72;5026556;28;20480;-72
2022/05/30 08:31:16;;;;;;;2.37;1.33;;;;;;;15.08;50.61;99894.38;5033988;28;20425;-72
2022/05/30 08:33:42;;;;;;;4.55;1.45;;;;;;;15.17;49.93;99894.56;5029252;28;20419;-72
2022/05/30 08:36:10;;;;;;;3.15;1.27;;;;;;;15.24;49.48;99897.78;5025361;28;20411;-72
2022/05/30 08:38:37;;;;;;;2.50;1.50;;;;;;;15.29;49.45;99891.44;5023454;28;20410;-72
2022/05/30 08:43:53;;;;;;;4.50;1.38;;;;;;;15.45;49.35;99893.72;5033164;28;20428;-71
2022/05/30 08:46:32;;;;;;;1.85;1.38;;;;;;;15.53;49.02;99901.31;5024590;28;20594;-72
2022/05/30 08:49:22;;;;;;;2.22;1.50;;;;;;;15.62;48.86;99887.81;5023943;28;20438;-72
2022/05/30 08:52:02;;;;;;;5.68;1.52;;;;;;;15.68;48.55;99896.75;5024028;28;20407;-71
2022/05/30 08:55:07;;;;;;;5.50;1.40;;;;;;;15.83;47.44;99888.38;5023880;28;20420;-72
2022/05/30 08:57:52;;;;;;;1.58;1.27;;;;;;;15.93;47.53;99890.97;4971321;28;20418;-71
2022/05/30 09:00:25;;;;;;;1.52;1.30;;;;;;;16.03;47.46;99888.94;5019967;28;20414;-72
2022/05/30 09:03:00;;;;;;;1.30;0.90;;;;;;;16.14;47.56;99886.84;5038537;28;20417;-72
2022/05/30 09:05:33;;;;;;;1.48;1.02;;;;;;;16.24;47.72;99891.34;5037853;28;20419;-72
2022/05/30 09:08:05;;;;;;;2.33;1.30;;;;;;;16.34;46.55;99893.94;5021970;28;20537;-72
2022/05/30 09:10:37;;;;;;;2.28;1.25;;;;;;;16.49;46.57;99890.97;5028254;28;20407;-71
2022/05/30 09:13:18;;;;;;;2.10;1.10;;;;;;;16.53;46.30;99889.28;5020224;28;20522;-72
2022/05/30 09:15:52;;;;;;;1.77;0.95;;;;;;;16.62;46.03;99893.00;5027197;28;20479;-72
2022/05/30 09:18:25;;;;;;;2.83;1.27;;;;;;;16.69;44.92;99896.16;5028616;28;20415;-72
2022/05/30 09:20:51;;;;;;;3.42;1.13;;;;;;;16.74;44.01;99896.06;5027124;28;20529;-74
2022/05/30 09:23:22;;;;;;;3.20;1.30;;;;;;;16.77;42.91;99887.25;5027400;28;20809;-74
2022/05/30 09:25:57;;;;;;;1.20;1.10;;;;;;;16.88;43.66;99891.44;5030249;28;20413;-74
2022/05/30 09:28:28;;;;;;;1.20;1.10;;;;;;;17.01;43.25;99889.88;5035129;28;20414;-72
2022/05/30 09:31:09;;;;;;;2.65;1.05;;;;;;;17.15;42.69;99887.97;5015344;28;20414;-74
2022/05/30 09:33:50;;;;;;;2.17;1.13;;;;;;;17.31;42.42;99886.56;5044746;28;20413;-73
2022/05/30 09:36:20;;;;;;;3.30;1.15;;;;;;;17.42;42.86;99879.75;5017752;28;20399;-74
2022/05/30 09:38:54;;;;;;;1.85;0.90;;;;;;;17.53;42.96;99883.13;5047948;28;20423;-74
2022/05/30 09:41:23;;;;;;;3.60;1.50;;;;;;;17.67;43.23;99881.22;5034145;28;20417;-73
2022/05/30 09:43:59;;;;;;;5.23;1.30;;;;;;;17.83;42.85;99877.03;5031370;28;20730;-73
2022/05/30 09:46:33;;;;;;;2.20;1.20;;;;;;;18.02;42.33;99879.63;5026928;28;20468;-73
2022/05/30 09:49:02;;;;;;;1.30;1.00;;;;;;;18.13;42.45;99872.81;5030583;28;20399;-73
2022/05/30 09:51:41;;;;;;;1.27;1.00;;;;;;;18.39;42.07;99868.38;5037657;28;20499;-73
2022/05/30 09:54:12;;;;;;;4.22;1.20;;;;;;;18.51;41.42;99867.84;5037267;28;20409;-73
2022/05/30 09:56:45;;;;;;;2.92;1.25;;;;;;;18.77;41.39;99873.53;5050568;28;20470;-73
2022/05/30 09:59:40;;;;;;;1.80;1.00;;;;;;;19.30;41.02;99873.50;5022926;28;20449;-73
2022/05/30 10:02:31;;;;;;;1.10;0.90;;;;;;;20.20;39.28;99872.78;5031468;28;20409;-74
2022/05/30 10:04:59;;;;;;;4.22;0.88;;;;;;;21.39;37.13;99871.03;5018180;28;20415;-74
2022/05/30 10:07:25;;;;;;;0.93;0.93;;;;;;;22.55;34.93;99866.56;5028619;28;20417;-73
2022/05/30 10:10:04;;;;;;;3.63;1.15;;;;;;;23.18;32.40;99873.56;5029563;28;20457;-74
2022/05/30 10:12:31;;;;;;;2.50;1.05;;;;;;;23.42;31.95;99869.25;5027570;28;20475;-72
2022/05/30 10:14:57;;;;;;;2.55;0.85;;;;;;;22.43;33.23;99868.44;5025818;28;20426;-74
2022/05/30 10:17:35;;;;;;;3.20;1.07;;;;;;;23.35;32.75;99872.56;5032608;28;21501;-74
2022/05/30 10:20:07;;;;;;;1.57;0.90;;;;;;;24.21;31.30;99869.47;5033908;28;20421;-73
2022/05/30 10:28:43;;;;;;;1.67;0.70;;;;;;;24.82;29.77;99871.22;5044269;28;20458;-74
2022/05/30 10:31:17;;;;;;;2.25;1.10;;;;;;;25.58;28.92;99871.72;5037295;28;20418;-74
2022/05/30 10:33:52;;;;;;;1.10;0.80;;;;;;;26.15;27.17;99875.81;5052541;28;20403;-74
2022/05/30 10:36:26;;;;;;;1.10;0.93;;;;;;;26.29;26.78;99879.75;5037942;28;20864;-74
2022/05/30 10:39:25;;;;;;;1.93;0.80;;;;;;;26.20;27.43;99879.16;5043582;28;20422;-71
2022/05/30 10:42:32;;;;;;;4.40;1.13;;;;;;;26.54;25.99;99882.28;5039259;28;20419;-71
2022/05/30 10:45:24;;;;;;;3.70;0.80;;;;;;;26.46;26.64;99877.72;5029519;28;20525;-74
2022/05/30 10:47:53;;;;;;;2.65;0.88;;;;;;;27.08;25.45;99871.03;5027140;28;20442;-71
2022/05/30 10:50:43;;;;;;;3.22;0.75;;;;;;;27.59;25.09;99871.59;5033624;28;20409;-74
2022/05/30 10:53:30;;;;;;;4.40;0.95;;;;;;;28.24;23.65;99874.97;5040129;28;20412;-73
2022/05/30 10:56:02;;;;;;;0.85;0.80;;;;;;;28.58;23.23;99875.84;5027734;28;20440;-73
2022/05/30 10:58:37;;;;;;;1.10;0.80;;;;;;;28.74;23.02;99876.47;5042436;28;20418;-74
2022/05/30 11:01:24;;;;;;;2.65;0.77;;;;;;;28.65;22.28;99873.91;5041312;28;20412;-74
2022/05/30 11:03:59;;;;;;;2.25;0.98;;;;;;;28.94;22.78;99886.25;5029239;28;20778;-74
2022/05/30 11:06:31;;;;;;;1.83;0.85;;;;;;;29.43;22.15;99874.00;5029017;28;20468;-73
2022/05/30 11:09:07;;;;;;;1.35;0.90;;;;;;;29.83;21.75;99882.34;5029247;28;20446;-74
2022/05/30 11:11:47;;;;;;;0.80;0.65;;;;;;;30.14;21.55;99873.38;5036093;28;20474;-73
2022/05/30 11:14:42;;;;;;;1.10;0.60;;;;;;;30.28;21.47;99878.25;5032800;28;20716;-75
2022/05/30 11:17:27;;;;;;;1.27;0.80;;;;;;;30.25;21.16;99884.63;5035743;28;20397;-73
2022/05/30 11:20:18;;;;;;;0.80;0.80;;;;;;;30.24;21.35;99878.22;5039620;28;20505;-74
2022/05/30 11:22:50;;;;;;;0.60;0.60;;;;;;;30.36;20.71;99877.88;5044711;28;20884;-76
2022/05/30 11:25:23;;;;;;;1.25;1.00;;;;;;;30.42;20.93;99881.16;5033682;28;20418;-74
2022/05/30 11:28:04;;;;;;;1.23;0.80;;;;;;;30.30;20.91;99873.06;5037651;28;20430;-74
2022/05/30 11:30:42;;;;;;;0.80;0.70;;;;;;;30.28;20.48;99889.41;5041687;28;20924;-74
2022/05/30 11:33:31;;;;;;;1.60;0.80;;;;;;;30.10;20.19;99878.13;5035363;28;20822;-74
2022/05/30 11:36:22;;;;;;;0.60;0.60;;;;;;;29.91;20.18;99885.97;5037784;28;20730;-74
2022/05/30 11:39:11;;;;;;;0.60;0.57;;;;;;;29.72;19.62;99885.03;5024733;28;20876;-73
2022/05/30 11:42:12;;;;;;;1.77;0.90;;;;;;;29.14;20.07;99884.06;5024093;28;20418;-74
2022/05/30 11:44:53;;;;;;;0.57;0.57;;;;;;;28.04;21.50;99884.59;5012604;28;20467;-74
2022/05/30 11:47:32;;;;;;;0.80;0.60;;;;;;;27.21;21.42;99881.63;5024131;28;20403;-74
2022/05/30 11:50:14;;;;;;;0.67;0.67;;;;;;;26.41;21.76;99881.59;5027118;28;20408;-74
2022/05/30 11:53:13;;;;;;;1.00;0.88;;;;;;;26.12;23.32;99885.69;5031823;28;20476;-74
2022/05/30 11:55:47;;;;;;;0.70;0.70;;;;;;;26.99;22.33;99882.41;5041132;28;20722;-74
2022/05/30 11:58:25;;;;;;;0.80;0.73;;;;;;;27.37;21.87;99880.72;5039675;28;20892;-73
2022/05/30 12:00:52;;;;;;;2.53;0.65;;;;;;;27.37;21.91;99875.94;5039017;28;20941;-74